| time (UTC) | temp F | wind direction | speed MPH | gust MPH | rain 1hr in | rain 24hr in | rain mn in | humidity % | barometer mb |
| 20260902201542 | 85 | 193 | 7.0 | 21.0 | 0.00 | 0.00 | 0.00 | 24 | 1003.1 |
| 20260902200039 | 84 | 238 | 10.0 | 16.0 | 0.00 | 0.00 | 0.00 | 26 | 1003.3 |
| 20260902194544 | 84 | 238 | 13.0 | 23.0 | 0.00 | 0.00 | 0.00 | 28 | 1003.5 |
| 20260902193034 | 84 | 218 | 13.0 | 22.0 | 0.00 | 0.00 | 0.00 | 28 | 1003.6 |
| 20260902191536 | 83 | 218 | 17.0 | 24.0 | 0.00 | 0.00 | 0.00 | 28 | 1003.7 |
| 20260902190048 | 84 | 217 | 18.0 | 25.0 | 0.00 | 0.00 | 0.00 | 26 | 1003.9 |
| 20260902184530 | 84 | 207 | 12.0 | 24.0 | 0.00 | 0.00 | 0.00 | 25 | 1003.8 |
| 20260902183029 | 84 | 194 | 18.0 | 28.0 | 0.00 | 0.00 | 0.00 | 24 | 1004.1 |
| 20260902181527 | 85 | 224 | 12.0 | 22.0 | 0.00 | 0.00 | 0.00 | 24 | 1004.2 |
| 20260902180033 | 84 | 204 | 11.0 | 19.0 | 0.00 | 0.00 | 0.00 | 23 | 1004.4 |
| 20260902174522 | 84 | 202 | 13.0 | 20.0 | 0.00 | 0.00 | 0.00 | 23 | 1004.4 |
| 20260902173028 | 83 | 156 | 8.0 | 19.0 | 0.00 | 0.00 | 0.00 | 27 | 1004.5 |
| 20260902171517 | 82 | 134 | 10.0 | 16.0 | 0.00 | 0.00 | 0.00 | 31 | 1004.7 |
| 20260902170015 | 82 | 160 | 7.0 | 17.0 | 0.00 | 0.00 | 0.00 | 32 | 1004.9 |
| 20260902164512 | 81 | 160 | 6.0 | 13.0 | 0.00 | 0.00 | 0.00 | 32 | 1005.0 |
| 20260902163011 | 80 | 208 | 9.0 | 13.0 | 0.00 | 0.00 | 0.00 | 33 | 1005.1 |
| 20260902161514 | 80 | 223 | 8.0 | 16.0 | 0.00 | 0.00 | 0.00 | 34 | 1005.3 |
| 20260902160009 | 79 | 253 | 7.0 | 13.0 | 0.00 | 0.00 | 0.00 | 35 | 1005.5 |
| 20260902154503 | 78 | 183 | 8.0 | 12.0 | 0.00 | 0.00 | 0.00 | 36 | 1005.6 |
| 20260902153059 | 76 | 130 | 6.0 | 10.0 | 0.00 | 0.00 | 0.00 | 38 | 1005.7 |
| 20260902151555 | 74 | 140 | 6.0 | 11.0 | 0.00 | 0.00 | 0.00 | 40 | 1005.9 |
| 20260902150052 | 72 | 178 | 7.0 | 10.0 | 0.00 | 0.00 | 0.00 | 41 | 1006.2 |
| 20260902144548 | 67 | 154 | 5.0 | 7.0 | 0.00 | 0.00 | 0.00 | 48 | 1006.2 |
| 20260902143047 | 63 | 110 | 0.0 | 2.0 | 0.00 | 0.00 | 0.00 | 53 | 1006.5 |
| 20260902141551 | 60 | 13 | 0.0 | 1.0 | 0.00 | 0.00 | 0.00 | 57 | 1006.6 |
| 20260902140052 | 60 | 327 | 1.0 | 3.0 | 0.00 | 0.00 | 0.00 | 57 | 1006.6 |
| 20260902134556 | 58 | 118 | 0.0 | 2.0 | 0.00 | 0.00 | 0.00 | 59 | 1006.8 |
| 20260902133044 | 57 | 128 | 1.0 | 3.0 | 0.00 | 0.00 | 0.00 | 59 | 1006.6 |
| 20260902131542 | 56 | 202 | 0.0 | 2.0 | 0.00 | 0.00 | 0.00 | 60 | 1006.4 |
| 20260902130043 | 55 | 182 | 1.0 | 4.0 | 0.00 | 0.00 | 0.00 | 61 | 1006.3 |
| 20260902124542 | 57 | 128 | 0.0 | 4.0 | 0.00 | 0.00 | 0.00 | 59 | 1006.2 |
| 20260902123041 | 58 | 199 | 2.0 | 5.0 | 0.00 | 0.00 | 0.00 | 59 | 1006.3 |
| 20260902121540 | 57 | 164 | 3.0 | 7.0 | 0.00 | 0.00 | 0.00 | 61 | 1006.2 |
| 20260902120039 | 56 | 161 | 3.0 | 4.0 | 0.00 | 0.00 | 0.00 | 63 | 1006.1 |
| 20260902114538 | 56 | 138 | 4.0 | 7.0 | 0.00 | 0.00 | 0.00 | 62 | 1006.1 |
| 20260902113036 | 57 | 117 | 1.0 | 4.0 | 0.00 | 0.00 | 0.00 | 59 | 1006.1 |
| 20260902111534 | 57 | 149 | 0.0 | 2.0 | 0.00 | 0.00 | 0.00 | 59 | 1006.1 |
| 20260902110035 | 57 | 128 | 0.0 | 1.0 | 0.00 | 0.00 | 0.00 | 59 | 1006.3 |
| 20260902104535 | 57 | 125 | 0.0 | 1.0 | 0.00 | 0.00 | 0.00 | 60 | 1006.5 |
| 20260902103032 | 54 | 206 | 0.0 | 1.0 | 0.00 | 0.00 | 0.00 | 62 | 1006.4 |
| 20260902101528 | 57 | 271 | 0.0 | 2.0 | 0.00 | 0.00 | 0.00 | 58 | 1006.5 |
| 20260902100027 | 58 | 130 | 0.0 | 2.0 | 0.00 | 0.00 | 0.00 | 58 | 1006.2 |
| 20260902094527 | 57 | 154 | 0.0 | 2.0 | 0.00 | 0.00 | 0.00 | 59 | 1006.2 |
| 20260902093025 | 56 | 130 | 0.0 | 1.0 | 0.00 | 0.00 | 0.00 | 61 | 1006.2 |
| 20260902091524 | 58 | 70 | 0.0 | 2.0 | 0.00 | 0.00 | 0.00 | 58 | 1006.2 |
| 20260902090024 | 57 | 161 | 1.0 | 3.0 | 0.00 | 0.00 | 0.00 | 57 | 1006.0 |
| 20260902084529 | 58 | 265 | 0.0 | 3.0 | 0.00 | 0.00 | 0.00 | 56 | 1006.0 |
| 20260902083019 | 60 | 350 | 0.0 | 0.0 | 0.00 | 0.00 | 0.00 | 55 | 1005.9 |
| 20260902081518 | 62 | 123 | 0.0 | 3.0 | 0.00 | 0.00 | 0.00 | 53 | 1006.1 |
| 20260902080017 | 60 | 137 | 3.0 | 5.0 | 0.00 | 0.00 | 0.00 | 56 | 1006.2 |
| 20260902074513 | 60 | 140 | 2.0 | 3.0 | 0.00 | 0.00 | 0.00 | 54 | 1006.0 |
| 20260902073011 | 62 | 44 | 0.0 | 2.0 | 0.00 | 0.00 | 0.00 | 53 | 1005.9 |
| 20260902071512 | 64 | 203 | 3.0 | 5.0 | 0.00 | 0.00 | 0.00 | 50 | 1006.1 |
| 20260902070007 | 63 | 154 | 3.0 | 4.0 | 0.00 | 0.00 | 0.00 | 52 | 1006.1 |
| 20260902064520 | 64 | 118 | 0.0 | 1.0 | 0.00 | 0.00 | 0.00 | 51 | 1005.9 |
| 20260902063006 | 65 | 142 | 2.0 | 6.0 | 0.00 | 0.00 | 0.00 | 49 | 1005.8 |
| 20260902061600 | 66 | 140 | 5.0 | 8.0 | 0.00 | 0.00 | 0.00 | 48 | 1006.0 |
| 20260902060109 | 66 | 152 | 3.0 | 6.0 | 0.00 | 0.00 | 0.00 | 47 | 1006.0 |
| 20260902054609 | 65 | 123 | 3.0 | 6.0 | 0.00 | 0.00 | 0.00 | 50 | 1005.8 |
| 20260902053059 | 65 | 122 | 2.0 | 4.0 | 0.00 | 0.00 | 0.00 | 49 | 1005.6 |
| 20260902051600 | 67 | 261 | 0.0 | 1.0 | 0.00 | 0.00 | 0.00 | 45 | 1005.8 |
| 20260902050057 | 67 | 269 | 0.0 | 2.0 | 0.00 | 0.00 | 0.00 | 44 | 1005.9 |
| 20260902044556 | 69 | 123 | 0.0 | 1.0 | 0.00 | 0.00 | 0.00 | 43 | 1005.6 |
| 20260902043109 | 69 | 140 | 0.0 | 1.0 | 0.00 | 0.00 | 0.00 | 43 | 1005.6 |
| 20260902041605 | 71 | 140 | 0.0 | 0.0 | 0.00 | 0.00 | 0.00 | 40 | 1005.6 |
| 20260902040057 | 72 | 140 | 0.0 | 3.0 | 0.00 | 0.00 | 0.00 | 40 | 1005.5 |
| 20260902034606 | 72 | 156 | 2.0 | 4.0 | 0.00 | 0.00 | 0.00 | 39 | 1005.4 |
| 20260902033055 | 73 | 136 | 0.0 | 2.0 | 0.00 | 0.00 | 0.00 | 39 | 1005.0 |
| 20260902031555 | 74 | 199 | 0.0 | 1.0 | 0.00 | 0.00 | 0.00 | 38 | 1004.8 |
| 20260902030053 | 73 | 199 | 0.0 | 4.0 | 0.00 | 0.00 | 0.00 | 39 | 1004.6 |
| 20260902024556 | 74 | 336 | 0.0 | 1.0 | 0.00 | 0.00 | 0.00 | 37 | 1004.2 |
| 20260902023054 | 75 | 336 | 0.0 | 3.0 | 0.00 | 0.00 | 0.00 | 37 | 1004.0 |
| 20260902021554 | 77 | 1 | 1.0 | 4.0 | 0.00 | 0.00 | 0.00 | 36 | 1003.9 |
| 20260902020053 | 78 | 326 | 4.0 | 8.0 | 0.00 | 0.00 | 0.00 | 35 | 1003.8 |
| 20260902014555 | 80 | 4 | 7.0 | 12.0 | 0.00 | 0.00 | 0.00 | 34 | 1003.8 |
| 20260902013056 | 81 | 360 | 6.0 | 12.0 | 0.00 | 0.00 | 0.00 | 33 | 1003.6 |
| 20260902011552 | 83 | 356 | 3.0 | 6.0 | 0.00 | 0.00 | 0.00 | 32 | 1003.4 |
| 20260902010053 | 84 | 22 | 3.0 | 5.0 | 0.00 | 0.00 | 0.00 | 31 | 1003.3 |
| 20260902004554 | 84 | 321 | 3.0 | 7.0 | 0.00 | 0.00 | 0.00 | 31 | 1003.2 |
| 20260902003124 | 84 | 14 | 5.0 | 7.0 | 0.00 | 0.00 | 0.00 | 30 | 1003.1 |
| 20260902001546 | 83 | 53 | 2.0 | 5.0 | 0.00 | 0.00 | 0.00 | 31 | 1003.3 |
| 20260902000048 | 83 | 17 | 1.0 | 5.0 | 0.00 | 0.00 | 0.00 | 31 | 1003.2 |
| 20260901234546 | 83 | 5 | 1.0 | 5.0 | 0.00 | 0.00 | 0.00 | 31 | 1003.2 |
| 20260901233044 | 84 | 312 | 0.0 | 2.0 | 0.00 | 0.00 | 0.00 | 30 | 1003.2 |
| 20260901231552 | 86 | 159 | 2.0 | 5.0 | 0.00 | 0.00 | 0.00 | 29 | 1003.3 |
| 20260901230043 | 85 | 169 | 2.0 | 5.0 | 0.00 | 0.00 | 0.00 | 30 | 1003.4 |
| 20260901224548 | 84 | 280 | 2.0 | 6.0 | 0.00 | 0.00 | 0.00 | 30 | 1003.3 |
| 20260901223041 | 84 | 272 | 5.0 | 7.0 | 0.00 | 0.00 | 0.00 | 31 | 1003.5 |
| 20260901221543 | 85 | 287 | 2.0 | 5.0 | 0.00 | 0.00 | 0.00 | 30 | 1003.5 |
| 20260901220043 | 83 | 183 | 3.0 | 5.0 | 0.00 | 0.00 | 0.00 | 32 | 1003.6 |
| 20260901214541 | 83 | 5 | 0.0 | 2.0 | 0.00 | 0.00 | 0.00 | 33 | 1003.7 |
| 20260901213038 | 84 | 59 | 5.0 | 8.0 | 0.00 | 0.00 | 0.00 | 32 | 1003.9 |
| 20260901211534 | 84 | 79 | 1.0 | 5.0 | 0.00 | 0.00 | 0.00 | 33 | 1004.1 |
| 20260901210034 | 83 | 32 | 1.0 | 5.0 | 0.00 | 0.00 | 0.00 | 34 | 1004.2 |
| 20260901204532 | 81 | 164 | 1.0 | 3.0 | 0.00 | 0.00 | 0.00 | 34 | 1004.3 |
| 20260901203033 | 81 | 227 | 3.0 | 6.0 | 0.00 | 0.00 | 0.00 | 35 | 1004.4 |